This is the latest recevied weather packets stored in our database for station/object IZ7EXI-13. If no packets are shown the sender has not sent any weather packets the latest 10 day(s).
| Time | Temp. | Humidity | Pressure | Rain* | Wind** | Luminosity | Snow |
|---|---|---|---|---|---|---|---|
| 1777606663 | 11.67° C | 65% | 1024.3 hPa | - | - | - | - |
| 1777605763 | 13.89° C | 57% | 1024.2 hPa | - | - | - | - |
| 1777604863 | 14.44° C | 51% | 1024 hPa | - | - | - | - |
| 1777603963 | 15° C | 52% | 1024 hPa | - | - | - | - |
| 1777603062 | 14.44° C | 52% | 1024 hPa | - | - | - | - |
| 1777602161 | 14.44° C | 55% | 1024.1 hPa | - | - | - | - |
| 1777601261 | 13.89° C | 61% | 1024.2 hPa | - | - | - | - |
| 1777600361 | 12.22° C | 71% | 1024.3 hPa | - | - | - | - |
| 1777599461 | 12.22° C | 71% | 1024.4 hPa | - | - | - | - |
| 1777598560 | 11.67° C | 72% | 1024.3 hPa | - | - | - | - |
| 1777597660 | 11.67° C | 71% | 1024.4 hPa | - | - | - | - |
| 1777596760 | 12.22° C | 71% | 1024.4 hPa | - | - | - | - |
| 1777595860 | 12.22° C | 70% | 1024.4 hPa | - | - | - | - |
| 1777594959 | 12.22° C | 69% | 1024.3 hPa | - | - | - | - |
| 1777594059 | 12.22° C | 69% | 1024.4 hPa | - | - | - | - |
| 1777593159 | 12.22° C | 68% | 1024.2 hPa | - | - | - | - |
| 1777592259 | 12.22° C | 69% | 1024 hPa | - | - | - | - |
| 1777591359 | 12.22° C | 69% | 1024.2 hPa | - | - | - | - |
| 1777590458 | 12.22° C | 68% | 1024.2 hPa | - | - | - | - |
| 1777589558 | 12.78° C | 67% | 1024.2 hPa | - | - | - | - |
| 1777588658 | 12.78° C | 67% | 1024.5 hPa | - | - | - | - |
| 1777587758 | 12.78° C | 68% | 1024.3 hPa | - | - | - | - |
| 1777587012 | 12.78° C | 69% | 1024.2 hPa | - | - | - | - |
| 1777586857 | 12.78° C | 69% | 1024.2 hPa | - | - | - | - |
| 1777585957 | 12.78° C | 69% | 1024.1 hPa | - | - | - | - |
* Rain since midnight (hover to see other rain measurements)
** Current wind speed in m/s (hover to see current wind gust speed)